sensor_id;sensor_type;location;lat;lon;timestamp;pressure;altitude;pressure_sealevel;temperature;humidity
14885;BME280;7534;50.762;7.000;2022-09-16T00:00:22;150102.97;;;15.05;77.50
14885;BME280;7534;50.762;7.000;2022-09-16T00:02:51;150120.06;;;15.11;77.21
14885;BME280;7534;50.762;7.000;2022-09-16T00:05:17;150135.81;;;15.17;76.95
14885;BME280;7534;50.762;7.000;2022-09-16T00:07:43;150104.31;;;15.05;77.52
14885;BME280;7534;50.762;7.000;2022-09-16T00:10:10;150092.44;;;15.01;77.84
14885;BME280;7534;50.762;7.000;2022-09-16T00:12:36;150096.41;;;15.02;78.12
14885;BME280;7534;50.762;7.000;2022-09-16T00:15:03;150116.09;;;15.10;77.48
14885;BME280;7534;50.762;7.000;2022-09-16T00:17:29;150114.78;;;15.09;78.30
14885;BME280;7534;50.762;7.000;2022-09-16T00:19:56;150093.78;;;15.01;78.09
14885;BME280;7534;50.762;7.000;2022-09-16T00:22:23;150096.41;;;15.02;78.13
14885;BME280;7534;50.762;7.000;2022-09-16T00:24:49;150109.56;;;15.07;77.83
14885;BME280;7534;50.762;7.000;2022-09-16T00:27:15;150110.88;;;15.08;77.26
14885;BME280;7534;50.762;7.000;2022-09-16T00:29:40;150093.78;;;15.01;76.83
14885;BME280;7534;50.762;7.000;2022-09-16T00:32:06;150084.59;;;14.98;77.06
14885;BME280;7534;50.762;7.000;2022-09-16T00:34:32;150079.34;;;14.96;76.96
14885;BME280;7534;50.762;7.000;2022-09-16T00:36:58;150055.69;;;14.86;77.39
14885;BME280;7534;50.762;7.000;2022-09-16T00:39:24;150060.94;;;14.88;77.66
14885;BME280;7534;50.762;7.000;2022-09-16T00:41:49;149999.22;;;14.65;78.31
14885;BME280;7534;50.762;7.000;2022-09-16T00:44:59;149966.38;;;14.52;79.40
14885;BME280;7534;50.762;7.000;2022-09-16T00:47:33;149971.63;;;14.54;79.63
14885;BME280;7534;50.762;7.000;2022-09-16T00:52:54;149948.00;;;14.45;80.57
14885;BME280;7534;50.762;7.000;2022-09-16T00:55:27;149933.56;;;14.39;81.07
14885;BME280;7534;50.762;7.000;2022-09-16T00:57:56;149934.88;;;14.40;80.87
14885;BME280;7534;50.762;7.000;2022-09-16T01:00:24;149922.97;;;14.35;81.36
14885;BME280;7534;50.762;7.000;2022-09-16T01:02:51;149919.09;;;14.34;81.61
14885;BME280;7534;50.762;7.000;2022-09-16T01:05:21;149903.28;;;14.28;82.13
14885;BME280;7534;50.762;7.000;2022-09-16T01:07:52;149919.09;;;14.34;81.93
14885;BME280;7534;50.762;7.000;2022-09-16T01:10:22;149928.25;;;14.37;81.47
14885;BME280;7534;50.762;7.000;2022-09-16T01:12:58;149903.28;;;14.28;81.94
14885;BME280;7534;50.762;7.000;2022-09-16T01:18:47;149870.50;;;14.15;82.99
14885;BME280;7534;50.762;7.000;2022-09-16T01:24:51;149882.28;;;14.20;83.28
14885;BME280;7534;50.762;7.000;2022-09-16T01:30:59;149863.91;;;14.12;84.71
14885;BME280;7534;50.762;7.000;2022-09-16T01:34:11;149882.28;;;14.20;84.51
14885;BME280;7534;50.762;7.000;2022-09-16T01:36:53;149892.81;;;14.24;84.32
14885;BME280;7534;50.762;7.000;2022-09-16T01:43:11;149857.38;;;14.10;84.63
14885;BME280;7534;50.762;7.000;2022-09-16T01:45:59;149841.59;;;14.04;84.87
14885;BME280;7534;50.762;7.000;2022-09-16T01:48:37;149837.69;;;14.02;85.51
14885;BME280;7534;50.762;7.000;2022-09-16T01:51:29;149861.28;;;14.11;85.64
14885;BME280;7534;50.762;7.000;2022-09-16T01:57:01;149854.75;;;14.09;85.85
14885;BME280;7534;50.762;7.000;2022-09-16T01:59:39;149862.59;;;14.12;85.55
14885;BME280;7534;50.762;7.000;2022-09-16T02:02:20;149848.19;;;14.06;85.41
14885;BME280;7534;50.762;7.000;2022-09-16T02:04:54;149829.81;;;13.99;86.16
14885;BME280;7534;50.762;7.000;2022-09-16T02:07:28;149832.44;;;14.00;86.43
14885;BME280;7534;50.762;7.000;2022-09-16T02:10:01;149846.84;;;14.06;86.35
14885;BME280;7534;50.762;7.000;2022-09-16T02:12:36;149844.22;;;14.05;86.71
14885;BME280;7534;50.762;7.000;2022-09-16T02:15:09;149836.38;;;14.02;86.93
14885;BME280;7534;50.762;7.000;2022-09-16T02:17:44;149798.28;;;13.87;88.25
14885;BME280;7534;50.762;7.000;2022-09-16T02:20:19;149795.69;;;13.86;89.24
14885;BME280;7534;50.762;7.000;2022-09-16T02:22:56;149804.84;;;13.90;89.30
14885;BME280;7534;50.762;7.000;2022-09-16T02:25:24;149802.22;;;13.89;89.49
14885;BME280;7534;50.762;7.000;2022-09-16T02:27:53;149803.53;;;13.89;89.70
14885;BME280;7534;50.762;7.000;2022-09-16T02:30:21;149786.50;;;13.83;89.74
14885;BME280;7534;50.762;7.000;2022-09-16T02:33:00;149793.06;;;13.85;90.28
14885;BME280;7534;50.762;7.000;2022-09-16T02:35:30;149814.06;;;13.93;90.13
14885;BME280;7534;50.762;7.000;2022-09-16T02:38:16;149786.50;;;13.83;90.75
14885;BME280;7534;50.762;7.000;2022-09-16T02:40:53;149782.53;;;13.81;91.50
14885;BME280;7534;50.762;7.000;2022-09-16T02:43:21;149778.59;;;13.80;91.72
14885;BME280;7534;50.762;7.000;2022-09-16T02:49:27;149774.69;;;13.78;92.94
14885;BME280;7534;50.762;7.000;2022-09-16T02:51:57;149800.91;;;13.88;92.35
14885;BME280;7534;50.762;7.000;2022-09-16T02:57:39;149812.75;;;13.93;91.95
14885;BME280;7534;50.762;7.000;2022-09-16T03:00:06;149783.88;;;13.82;92.55
14885;BME280;7534;50.762;7.000;2022-09-16T03:02:34;149772.06;;;13.77;93.04
14885;BME280;7534;50.762;7.000;2022-09-16T03:05:01;149779.91;;;13.80;93.21
14885;BME280;7534;50.762;7.000;2022-09-16T03:07:27;149777.28;;;13.79;93.13
14885;BME280;7534;50.762;7.000;2022-09-16T03:09:52;149787.81;;;13.83;93.23
14885;BME280;7534;50.762;7.000;2022-09-16T03:12:46;149766.81;;;13.75;93.26
14885;BME280;7534;50.762;7.000;2022-09-16T03:15:38;149774.69;;;13.78;93.17
14885;BME280;7534;50.762;7.000;2022-09-16T03:21:35;149768.13;;;13.75;92.96
14885;BME280;7534;50.762;7.000;2022-09-16T03:27:31;149758.91;;;13.72;92.46
14885;BME280;7534;50.762;7.000;2022-09-16T03:30:09;149751.06;;;13.69;92.68
14885;BME280;7534;50.762;7.000;2022-09-16T03:32:49;149752.38;;;13.69;92.80
14885;BME280;7534;50.762;7.000;2022-09-16T03:35:35;149757.59;;;13.71;92.14
14885;BME280;7534;50.762;7.000;2022-09-16T03:38:05;149770.75;;;13.77;92.01
14885;BME280;7534;50.762;7.000;2022-09-16T03:40:33;149798.28;;;13.87;91.30
14885;BME280;7534;50.762;7.000;2022-09-16T03:42:59;149819.28;;;13.95;90.95
14885;BME280;7534;50.762;7.000;2022-09-16T03:45:34;149806.16;;;13.90;90.65
14885;BME280;7534;50.762;7.000;2022-09-16T03:48:00;149772.06;;;13.77;90.24
14885;BME280;7534;50.762;7.000;2022-09-16T03:50:28;149775.97;;;13.79;90.30
14885;BME280;7534;50.762;7.000;2022-09-16T03:52:54;149761.56;;;13.73;90.38
14885;BME280;7534;50.762;7.000;2022-09-16T03:55:19;149756.28;;;13.71;90.22
14885;BME280;7534;50.762;7.000;2022-09-16T03:57:45;149766.81;;;13.75;90.20
14885;BME280;7534;50.762;7.000;2022-09-16T04:00:12;149757.59;;;13.71;90.22
14885;BME280;7534;50.762;7.000;2022-09-16T04:02:40;149770.75;;;13.77;90.10
14885;BME280;7534;50.762;7.000;2022-09-16T04:05:07;149736.59;;;13.63;91.04
14885;BME280;7534;50.762;7.000;2022-09-16T04:07:33;149772.06;;;13.77;90.47
14885;BME280;7534;50.762;7.000;2022-09-16T04:09:59;149774.69;;;13.78;90.36
14885;BME280;7534;50.762;7.000;2022-09-16T04:12:25;149770.75;;;13.77;90.76
14885;BME280;7534;50.762;7.000;2022-09-16T04:14:51;149783.88;;;13.82;89.88
14885;BME280;7534;50.762;7.000;2022-09-16T04:17:17;149778.59;;;13.80;89.79
14885;BME280;7534;50.762;7.000;2022-09-16T04:19:43;149764.19;;;13.74;90.01
14885;BME280;7534;50.762;7.000;2022-09-16T04:22:08;149777.28;;;13.79;89.63
14885;BME280;7534;50.762;7.000;2022-09-16T04:24:34;149749.75;;;13.68;89.57
14885;BME280;7534;50.762;7.000;2022-09-16T04:27:00;149745.81;;;13.67;89.72
14885;BME280;7534;50.762;7.000;2022-09-16T04:29:26;149743.19;;;13.66;89.67
14885;BME280;7534;50.762;7.000;2022-09-16T04:31:53;149715.63;;;13.55;90.11
14885;BME280;7534;50.762;7.000;2022-09-16T04:34:19;149714.28;;;13.55;90.46
14885;BME280;7534;50.762;7.000;2022-09-16T04:36:45;149688.09;;;13.45;90.68
14885;BME280;7534;50.762;7.000;2022-09-16T04:39:11;149699.88;;;13.49;90.80
14885;BME280;7534;50.762;7.000;2022-09-16T04:41:37;149712.97;;;13.54;90.26
14885;BME280;7534;50.762;7.000;2022-09-16T04:44:04;149709.09;;;13.53;89.99
14885;BME280;7534;50.762;7.000;2022-09-16T04:46:31;149728.78;;;13.60;89.82
14885;BME280;7534;50.762;7.000;2022-09-16T04:48:58;149690.72;;;13.46;89.54
14885;BME280;7534;50.762;7.000;2022-09-16T04:51:27;149677.56;;;13.41;90.35
14885;BME280;7534;50.762;7.000;2022-09-16T04:53:54;149682.84;;;13.43;90.13
14885;BME280;7534;50.762;7.000;2022-09-16T04:56:27;149667.09;;;13.36;90.12
14885;BME280;7534;50.762;7.000;2022-09-16T04:58:57;149639.53;;;13.26;90.66
14885;BME280;7534;50.762;7.000;2022-09-16T05:01:26;149632.97;;;13.23;90.90
14885;BME280;7534;50.762;7.000;2022-09-16T05:03:54;149588.31;;;13.06;91.74
14885;BME280;7534;50.762;7.000;2022-09-16T05:06:34;149566.03;;;12.97;92.29
14885;BME280;7534;50.762;7.000;2022-09-16T05:09:01;149552.94;;;12.92;92.70
14885;BME280;7534;50.762;7.000;2022-09-16T05:11:34;149548.97;;;12.91;92.19
14885;BME280;7534;50.762;7.000;2022-09-16T05:14:07;149521.47;;;12.80;92.50
14885;BME280;7534;50.762;7.000;2022-09-16T05:16:34;149504.41;;;12.74;92.69
14885;BME280;7534;50.762;7.000;2022-09-16T05:19:01;149505.72;;;12.74;93.07
14885;BME280;7534;50.762;7.000;2022-09-16T05:21:34;149486.03;;;12.67;92.94
14885;BME280;7534;50.762;7.000;2022-09-16T05:24:02;149503.06;;;12.73;93.05
14885;BME280;7534;50.762;7.000;2022-09-16T05:26:31;149525.38;;;12.82;92.17
14885;BME280;7534;50.762;7.000;2022-09-16T05:29:16;149575.22;;;13.01;91.10
14885;BME280;7534;50.762;7.000;2022-09-16T05:31:44;149601.47;;;13.11;90.05
14885;BME280;7534;50.762;7.000;2022-09-16T05:34:19;149647.44;;;13.29;88.43
14885;BME280;7534;50.762;7.000;2022-09-16T05:36:47;149680.22;;;13.42;86.78
14885;BME280;7534;50.762;7.000;2022-09-16T05:39:16;149684.16;;;13.43;86.31
14885;BME280;7534;50.762;7.000;2022-09-16T05:41:46;149693.31;;;13.47;85.97
14885;BME280;7534;50.762;7.000;2022-09-16T05:44:12;149709.09;;;13.53;85.38
14885;BME280;7534;50.762;7.000;2022-09-16T05:46:39;149702.50;;;13.50;85.47
14885;BME280;7534;50.762;7.000;2022-09-16T05:49:11;149722.19;;;13.58;84.67
14885;BME280;7534;50.762;7.000;2022-09-16T05:51:38;149744.50;;;13.66;83.25
14885;BME280;7534;50.762;7.000;2022-09-16T05:54:06;149779.91;;;13.80;82.63
14885;BME280;7534;50.762;7.000;2022-09-16T05:56:32;149772.06;;;13.77;82.22
14885;BME280;7534;50.762;7.000;2022-09-16T05:58:59;149798.28;;;13.87;82.05
14885;BME280;7534;50.762;7.000;2022-09-16T06:01:36;149808.81;;;13.91;81.73
14885;BME280;7534;50.762;7.000;2022-09-16T06:04:05;149824.53;;;13.97;80.98
14885;BME280;7534;50.762;7.000;2022-09-16T06:06:43;149835.06;;;14.01;80.62
14885;BME280;7534;50.762;7.000;2022-09-16T06:09:19;149835.06;;;14.01;81.11
14885;BME280;7534;50.762;7.000;2022-09-16T06:11:49;149842.91;;;14.04;80.92
14885;BME280;7534;50.762;7.000;2022-09-16T06:14:16;149858.69;;;14.10;80.39
14885;BME280;7534;50.762;7.000;2022-09-16T06:16:43;149850.81;;;14.07;80.43
14885;BME280;7534;50.762;7.000;2022-09-16T06:19:15;149888.88;;;14.22;80.03
14885;BME280;7534;50.762;7.000;2022-09-16T06:21:43;149895.44;;;14.25;80.15
14885;BME280;7534;50.762;7.000;2022-09-16T06:24:10;149899.41;;;14.26;79.62
14885;BME280;7534;50.762;7.000;2022-09-16T06:26:40;149916.44;;;14.33;79.24
14885;BME280;7534;50.762;7.000;2022-09-16T06:29:07;149930.94;;;14.38;78.33
14885;BME280;7534;50.762;7.000;2022-09-16T06:31:34;149978.22;;;14.57;78.64
14885;BME280;7534;50.762;7.000;2022-09-16T06:34:01;150055.69;;;14.86;76.64
14885;BME280;7534;50.762;7.000;2022-09-16T06:36:32;150084.59;;;14.98;75.86
14885;BME280;7534;50.762;7.000;2022-09-16T06:38:58;150172.63;;;15.32;74.59
14885;BME280;7534;50.762;7.000;2022-09-16T06:41:24;150497.38;;;16.57;70.87
14885;BME280;7534;50.762;7.000;2022-09-16T06:43:51;150701.38;;;17.35;66.04
14885;BME280;7534;50.762;7.000;2022-09-16T06:46:23;150854.16;;;17.94;63.03
14885;BME280;7534;50.762;7.000;2022-09-16T06:48:53;150894.97;;;18.10;61.84
14885;BME280;7534;50.762;7.000;2022-09-16T06:51:22;150831.75;;;17.85;61.68
14885;BME280;7534;50.762;7.000;2022-09-16T06:53:50;150742.22;;;17.51;63.02
14885;BME280;7534;50.762;7.000;2022-09-16T06:56:19;150527.72;;;16.68;64.79
14885;BME280;7534;50.762;7.000;2022-09-16T06:58:48;150481.63;;;16.51;66.04
14885;BME280;7534;50.762;7.000;2022-09-16T07:01:24;150392.19;;;16.16;67.31
14885;BME280;7534;50.762;7.000;2022-09-16T07:03:52;150384.31;;;16.13;68.48
14885;BME280;7534;50.762;7.000;2022-09-16T07:06:20;150396.13;;;16.18;68.71
14885;BME280;7534;50.762;7.000;2022-09-16T07:08:47;150411.91;;;16.24;68.18
14885;BME280;7534;50.762;7.000;2022-09-16T07:11:19;150379.03;;;16.11;68.73
14885;BME280;7534;50.762;7.000;2022-09-16T07:13:46;150421.13;;;16.27;69.94
14885;BME280;7534;50.762;7.000;2022-09-16T07:16:22;150735.63;;;17.48;64.32
14885;BME280;7534;50.762;7.000;2022-09-16T07:18:56;150893.66;;;18.09;60.88
14885;BME280;7534;50.762;7.000;2022-09-16T07:21:25;151195.44;;;19.25;57.62
14885;BME280;7534;50.762;7.000;2022-09-16T07:23:56;151530.53;;;20.54;54.45
14885;BME280;7534;50.762;7.000;2022-09-16T07:26:32;152212.28;;;23.15;47.63
14885;BME280;7534;50.762;7.000;2022-09-16T07:29:01;152122.38;;;22.81;46.36
14885;BME280;7534;50.762;7.000;2022-09-16T07:31:31;151854.06;;;21.78;47.54
14885;BME280;7534;50.762;7.000;2022-09-16T07:33:58;151773.50;;;21.47;49.29
14885;BME280;7534;50.762;7.000;2022-09-16T07:36:29;151563.56;;;20.67;50.27
14885;BME280;7534;50.762;7.000;2022-09-16T07:38:56;151254.81;;;19.48;54.23
14885;BME280;7534;50.762;7.000;2022-09-16T07:41:29;150992.47;;;18.47;56.78
14885;BME280;7534;50.762;7.000;2022-09-16T07:43:57;150855.47;;;17.95;59.65
14885;BME280;7534;50.762;7.000;2022-09-16T07:46:30;150844.97;;;17.90;60.85
14885;BME280;7534;50.762;7.000;2022-09-16T07:48:58;150877.84;;;18.03;60.76
14885;BME280;7534;50.762;7.000;2022-09-16T07:51:26;150873.91;;;18.02;61.01
14885;BME280;7534;50.762;7.000;2022-09-16T07:53:55;150927.91;;;18.22;59.81
14885;BME280;7534;50.762;7.000;2022-09-16T07:56:22;150876.53;;;18.03;60.95
14885;BME280;7534;50.762;7.000;2022-09-16T07:58:51;151177.00;;;19.18;57.09
14885;BME280;7534;50.762;7.000;2022-09-16T08:01:17;151380.09;;;19.96;53.72
14885;BME280;7534;50.762;7.000;2022-09-16T08:03:44;151245.56;;;19.44;54.56
14885;BME280;7534;50.762;7.000;2022-09-16T08:06:19;151348.47;;;19.84;54.86
14885;BME280;7534;50.762;7.000;2022-09-16T08:08:46;151716.69;;;21.25;49.21
14885;BME280;7534;50.762;7.000;2022-09-16T08:11:13;152135.63;;;22.86;46.12
14885;BME280;7534;50.762;7.000;2022-09-16T08:13:41;152506.03;;;24.28;43.03
14885;BME280;7534;50.762;7.000;2022-09-16T08:16:11;152841.06;;;25.56;39.60
14885;BME280;7534;50.762;7.000;2022-09-16T08:18:37;152308.84;;;23.52;41.92
14885;BME280;7534;50.762;7.000;2022-09-16T08:21:16;151885.72;;;21.90;46.15
14885;BME280;7534;50.762;7.000;2022-09-16T08:23:43;151696.91;;;21.18;48.86
14885;BME280;7534;50.762;7.000;2022-09-16T08:26:10;151628.25;;;20.91;50.35
14885;BME280;7534;50.762;7.000;2022-09-16T08:28:38;151613.69;;;20.86;50.75
14885;BME280;7534;50.762;7.000;2022-09-16T08:31:04;151579.38;;;20.73;51.08
14885;BME280;7534;50.762;7.000;2022-09-16T08:33:30;151403.84;;;20.05;52.12
14885;BME280;7534;50.762;7.000;2022-09-16T08:36:22;151300.97;;;19.66;53.42
14885;BME280;7534;50.762;7.000;2022-09-16T08:38:53;151180.97;;;19.20;54.58
14885;BME280;7534;50.762;7.000;2022-09-16T08:41:56;151017.53;;;18.57;56.42
14885;BME280;7534;50.762;7.000;2022-09-16T08:44:55;151075.53;;;18.79;57.51
14885;BME280;7534;50.762;7.000;2022-09-16T08:50:41;151285.16;;;19.60;54.66
14885;BME280;7534;50.762;7.000;2022-09-16T08:53:26;151355.03;;;19.87;53.90
14885;BME280;7534;50.762;7.000;2022-09-16T08:55:58;151236.31;;;19.41;54.66
14885;BME280;7534;50.762;7.000;2022-09-16T08:58:38;151130.88;;;19.00;55.03
14885;BME280;7534;50.762;7.000;2022-09-16T09:01:26;150960.84;;;18.35;55.81
14885;BME280;7534;50.762;7.000;2022-09-16T09:03:54;150946.34;;;18.29;56.41
14885;BME280;7534;50.762;7.000;2022-09-16T09:07:07;151353.75;;;19.86;52.61
14885;BME280;7534;50.762;7.000;2022-09-16T09:10:00;151881.81;;;21.89;47.42
14885;BME280;7534;50.762;7.000;2022-09-16T09:12:38;152262.56;;;23.35;43.33
14885;BME280;7534;50.762;7.000;2022-09-16T09:18:20;152216.28;;;23.17;42.17
14885;BME280;7534;50.762;7.000;2022-09-16T09:21:24;152146.19;;;22.90;41.67
14885;BME280;7534;50.762;7.000;2022-09-16T09:24:23;151872.53;;;21.85;44.23
14885;BME280;7534;50.762;7.000;2022-09-16T09:26:57;151773.50;;;21.47;45.73
14885;BME280;7534;50.762;7.000;2022-09-16T09:35:19;152008.69;;;22.37;43.00
14885;BME280;7534;50.762;7.000;2022-09-16T09:41:23;151611.03;;;20.85;46.05
14885;BME280;7534;50.762;7.000;2022-09-16T09:44:04;151784.06;;;21.51;45.60
14885;BME280;7534;50.762;7.000;2022-09-16T09:46:44;151880.50;;;21.88;44.63
14885;BME280;7534;50.762;7.000;2022-09-16T09:49:45;151584.69;;;20.75;46.21
14885;BME280;7534;50.762;7.000;2022-09-16T09:54:50;152032.44;;;22.46;43.95
14885;BME280;7534;50.762;7.000;2022-09-16T09:57:29;152150.16;;;22.92;42.34
14885;BME280;7534;50.762;7.000;2022-09-16T10:00:17;152446.47;;;24.05;39.62
14885;BME280;7534;50.762;7.000;2022-09-16T10:02:45;152269.13;;;23.37;39.41
14885;BME280;7534;50.762;7.000;2022-09-16T10:05:27;152073.41;;;22.62;40.60
14885;BME280;7534;50.762;7.000;2022-09-16T10:08:24;151607.13;;;20.83;44.46
14885;BME280;7534;50.762;7.000;2022-09-16T10:10:58;151559.59;;;20.65;45.66
14885;BME280;7534;50.762;7.000;2022-09-16T10:13:27;151493.59;;;20.40;46.66
14885;BME280;7534;50.762;7.000;2022-09-16T10:16:13;151378.78;;;19.96;48.52
14885;BME280;7534;50.762;7.000;2022-09-16T10:18:40;151162.53;;;19.13;50.42
14885;BME280;7534;50.762;7.000;2022-09-16T10:21:11;151134.81;;;19.02;49.70
14885;BME280;7534;50.762;7.000;2022-09-16T10:23:38;151101.84;;;18.89;50.71
14885;BME280;7534;50.762;7.000;2022-09-16T10:26:05;151142.75;;;19.05;51.09
14885;BME280;7534;50.762;7.000;2022-09-16T10:28:32;151079.50;;;18.81;51.37
14885;BME280;7534;50.762;7.000;2022-09-16T10:30:59;151173.03;;;19.17;51.62
14885;BME280;7534;50.762;7.000;2022-09-16T10:33:33;151171.72;;;19.16;51.48
14885;BME280;7534;50.762;7.000;2022-09-16T10:36:05;150976.63;;;18.41;53.12
14885;BME280;7534;50.762;7.000;2022-09-16T10:38:40;150995.13;;;18.48;55.51
14885;BME280;7534;50.762;7.000;2022-09-16T10:41:15;151032.03;;;18.62;54.14
14885;BME280;7534;50.762;7.000;2022-09-16T10:46:17;151028.06;;;18.61;52.27
14885;BME280;7534;50.762;7.000;2022-09-16T10:48:45;151096.63;;;18.87;52.29
14885;BME280;7534;50.762;7.000;2022-09-16T10:51:29;151144.03;;;19.05;51.98
14885;BME280;7534;50.762;7.000;2022-09-16T10:54:02;151196.78;;;19.26;50.40
14885;BME280;7534;50.762;7.000;2022-09-16T10:56:50;151303.63;;;19.67;50.49
14885;BME280;7534;50.762;7.000;2022-09-16T10:59:16;151283.84;;;19.59;49.80
14885;BME280;7534;50.762;7.000;2022-09-16T11:01:44;151224.47;;;19.36;46.87
14885;BME280;7534;50.762;7.000;2022-09-16T11:08:17;151209.94;;;19.31;47.04
14885;BME280;7534;50.762;7.000;2022-09-16T11:11:02;151274.59;;;19.56;47.96
14885;BME280;7534;50.762;7.000;2022-09-16T11:25:14;151235.00;;;19.40;48.79
14885;BME280;7534;50.762;7.000;2022-09-16T11:31:21;151264.06;;;19.52;47.47
14885;BME280;7534;50.762;7.000;2022-09-16T11:37:00;151328.69;;;19.76;46.63
14885;BME280;7534;50.762;7.000;2022-09-16T11:40:02;151282.53;;;19.59;46.75
14885;BME280;7534;50.762;7.000;2022-09-16T11:51:23;151133.50;;;19.01;48.17
14885;BME280;7534;50.762;7.000;2022-09-16T11:57:02;151246.88;;;19.45;49.03
14885;BME280;7534;50.762;7.000;2022-09-16T12:02:23;151225.78;;;19.37;46.69
14885;BME280;7534;50.762;7.000;2022-09-16T12:04:56;151169.06;;;19.15;48.08
14885;BME280;7534;50.762;7.000;2022-09-16T12:08:24;151149.31;;;19.08;47.96
14885;BME280;7534;50.762;7.000;2022-09-16T12:11:16;151175.69;;;19.18;47.38
14885;BME280;7534;50.762;7.000;2022-09-16T12:13:55;151162.53;;;19.13;48.03
14885;BME280;7534;50.762;7.000;2022-09-16T12:16:38;151121.66;;;18.97;50.15
14885;BME280;7534;50.762;7.000;2022-09-16T12:19:22;151036.00;;;18.64;50.31
14885;BME280;7534;50.762;7.000;2022-09-16T12:22:20;150846.28;;;17.91;53.11
14885;BME280;7534;50.762;7.000;2022-09-16T12:24:58;150609.28;;;17.00;60.06
14885;BME280;7534;50.762;7.000;2022-09-16T12:27:59;150486.88;;;16.53;63.98
14885;BME280;7534;50.762;7.000;2022-09-16T12:30:35;150473.72;;;16.48;65.80
14885;BME280;7534;50.762;7.000;2022-09-16T12:33:36;150396.13;;;16.18;68.85
14885;BME280;7534;50.762;7.000;2022-09-16T12:36:14;150347.47;;;15.99;69.65
14885;BME280;7534;50.762;7.000;2022-09-16T12:38:40;150298.84;;;15.80;70.03
14885;BME280;7534;50.762;7.000;2022-09-16T12:51:03;150276.50;;;15.72;71.57
14885;BME280;7534;50.762;7.000;2022-09-16T12:53:54;150227.81;;;15.53;73.62
14885;BME280;7534;50.762;7.000;2022-09-16T13:01:56;150300.19;;;15.81;70.38
14885;BME280;7534;50.762;7.000;2022-09-16T13:04:39;150297.53;;;15.80;69.11
14885;BME280;7534;50.762;7.000;2022-09-16T13:07:22;150396.13;;;16.18;69.08
14885;BME280;7534;50.762;7.000;2022-09-16T13:10:06;150434.25;;;16.32;67.50
14885;BME280;7534;50.762;7.000;2022-09-16T13:12:34;150385.59;;;16.14;70.81
14885;BME280;7534;50.762;7.000;2022-09-16T13:15:03;150225.19;;;15.52;78.39
14885;BME280;7534;50.762;7.000;2022-09-16T13:17:37;149965.06;;;14.51;81.66
14885;BME280;7534;50.762;7.000;2022-09-16T13:20:18;149859.97;;;14.11;80.96
14885;BME280;7534;50.762;7.000;2022-09-16T13:23:07;149924.28;;;14.36;80.50
14885;BME280;7534;50.762;7.000;2022-09-16T13:25:59;149982.16;;;14.58;81.23
14885;BME280;7534;50.762;7.000;2022-09-16T13:30:51;149929.56;;;14.38;80.42
14885;BME280;7534;50.762;7.000;2022-09-16T13:35:46;149869.19;;;14.14;77.50
14885;BME280;7534;50.762;7.000;2022-09-16T13:40:58;149937.50;;;14.41;79.48
14885;BME280;7534;50.762;7.000;2022-09-16T13:46:09;149828.50;;;13.99;78.94
14885;BME280;7534;50.762;7.000;2022-09-16T13:48:50;149841.59;;;14.04;82.34
14885;BME280;7534;50.762;7.000;2022-09-16T13:51:21;149833.75;;;14.01;82.01
14885;BME280;7534;50.762;7.000;2022-09-16T13:53:50;149802.22;;;13.89;80.24
14885;BME280;7534;50.762;7.000;2022-09-16T13:56:58;149791.75;;;13.85;81.50
14885;BME280;7534;50.762;7.000;2022-09-16T14:00:02;149856.06;;;14.09;84.88
14885;BME280;7534;50.762;7.000;2022-09-16T14:02:54;149944.03;;;14.43;82.27
14885;BME280;7534;50.762;7.000;2022-09-16T14:08:58;150093.78;;;15.01;79.65
14885;BME280;7534;50.762;7.000;2022-09-16T14:11:48;150114.78;;;15.09;79.28
14885;BME280;7534;50.762;7.000;2022-09-16T14:14:22;150076.69;;;14.95;77.28
14885;BME280;7534;50.762;7.000;2022-09-16T14:16:51;150005.81;;;14.67;78.52
14885;BME280;7534;50.762;7.000;2022-09-16T14:19:26;150020.22;;;14.73;78.15
14885;BME280;7534;50.762;7.000;2022-09-16T14:22:16;150026.81;;;14.75;75.90
14885;BME280;7534;50.762;7.000;2022-09-16T14:24:44;150025.50;;;14.75;77.94
14885;BME280;7534;50.762;7.000;2022-09-16T14:27:37;150026.81;;;14.75;79.33
14885;BME280;7534;50.762;7.000;2022-09-16T14:30:12;150089.88;;;15.00;79.45
14885;BME280;7534;50.762;7.000;2022-09-16T14:32:40;150173.94;;;15.32;79.53
14885;BME280;7534;50.762;7.000;2022-09-16T14:35:20;150192.34;;;15.39;72.82
14885;BME280;7534;50.762;7.000;2022-09-16T14:37:52;150302.75;;;15.82;74.82
14885;BME280;7534;50.762;7.000;2022-09-16T14:40:23;150318.56;;;15.88;70.65
14885;BME280;7534;50.762;7.000;2022-09-16T14:42:57;150390.84;;;16.16;72.49
14885;BME280;7534;50.762;7.000;2022-09-16T14:45:25;150401.41;;;16.20;70.89
14885;BME280;7534;50.762;7.000;2022-09-16T14:47:54;150414.53;;;16.25;69.77
14885;BME280;7534;50.762;7.000;2022-09-16T14:50:30;150322.47;;;15.89;67.92
14885;BME280;7534;50.762;7.000;2022-09-16T14:53:01;150401.41;;;16.20;71.33
14885;BME280;7534;50.762;7.000;2022-09-16T14:55:31;150488.19;;;16.53;71.63
14885;BME280;7534;50.762;7.000;2022-09-16T14:57:59;150602.69;;;16.97;67.58
14885;BME280;7534;50.762;7.000;2022-09-16T15:00:53;150698.78;;;17.34;65.84
14885;BME280;7534;50.762;7.000;2022-09-16T15:03:36;150665.84;;;17.22;64.32
14885;BME280;7534;50.762;7.000;2022-09-16T15:06:16;150644.78;;;17.13;65.76
14885;BME280;7534;50.762;7.000;2022-09-16T15:09:02;150586.91;;;16.91;65.27
14885;BME280;7534;50.762;7.000;2022-09-16T15:11:48;150619.78;;;17.04;65.31
14885;BME280;7534;50.762;7.000;2022-09-16T15:14:17;150602.69;;;16.97;63.20
14885;BME280;7534;50.762;7.000;2022-09-16T15:16:50;150588.22;;;16.92;64.62
14885;BME280;7534;50.762;7.000;2022-09-16T15:19:23;150531.66;;;16.70;65.07
14885;BME280;7534;50.762;7.000;2022-09-16T15:21:50;150455.28;;;16.40;65.08
14885;BME280;7534;50.762;7.000;2022-09-16T15:24:25;150442.16;;;16.35;67.85
14885;BME280;7534;50.762;7.000;2022-09-16T15:26:54;150390.84;;;16.16;65.66
14885;BME280;7534;50.762;7.000;2022-09-16T15:31:49;150280.41;;;15.73;67.96
14885;BME280;7534;50.762;7.000;2022-09-16T15:36:51;150187.06;;;15.37;70.23
14885;BME280;7534;50.762;7.000;2022-09-16T15:39:37;150223.84;;;15.51;70.56